sensor_id;sensor_type;location;lat;lon;timestamp;pressure;altitude;pressure_sealevel;temperature;humidity
19676;BME280;39539;52.202;9.876;2023-03-22T00:00:47;100323.66;;;7.93;100.00
19676;BME280;39539;52.202;9.876;2023-03-22T00:03:13;100322.00;;;7.85;100.00
19676;BME280;39539;52.202;9.876;2023-03-22T00:05:38;100317.91;;;7.82;100.00
19676;BME280;39539;52.202;9.876;2023-03-22T00:08:04;100320.75;;;7.81;100.00
19676;BME280;39539;52.202;9.876;2023-03-22T00:10:32;100316.25;;;7.75;100.00
19676;BME280;39539;52.202;9.876;2023-03-22T00:12:58;100310.53;;;7.71;100.00
19676;BME280;39539;52.202;9.876;2023-03-22T00:15:24;100308.44;;;7.60;100.00
19676;BME280;39539;52.202;9.876;2023-03-22T00:17:49;100297.88;;;7.67;100.00
19676;BME280;39539;52.202;9.876;2023-03-22T00:20:15;100296.03;;;7.67;100.00
19676;BME280;39539;52.202;9.876;2023-03-22T00:22:46;100323.00;;;7.84;100.00
19676;BME280;39539;52.202;9.876;2023-03-22T00:25:11;100312.00;;;7.80;100.00
19676;BME280;39539;52.202;9.876;2023-03-22T00:27:36;100311.56;;;7.77;100.00
19676;BME280;39539;52.202;9.876;2023-03-22T00:30:03;100316.66;;;7.78;100.00
19676;BME280;39539;52.202;9.876;2023-03-22T00:32:33;100299.53;;;7.68;100.00
19676;BME280;39539;52.202;9.876;2023-03-22T00:34:58;100318.88;;;7.68;100.00
19676;BME280;39539;52.202;9.876;2023-03-22T00:37:24;100291.94;;;7.51;100.00
19676;BME280;39539;52.202;9.876;2023-03-22T00:39:51;100307.22;;;7.56;100.00
19676;BME280;39539;52.202;9.876;2023-03-22T00:42:17;100285.78;;;7.44;100.00
19676;BME280;39539;52.202;9.876;2023-03-22T00:44:42;100295.78;;;7.55;100.00
19676;BME280;39539;52.202;9.876;2023-03-22T00:47:07;100294.19;;;7.54;100.00
19676;BME280;39539;52.202;9.876;2023-03-22T00:49:33;100286.00;;;7.49;100.00
19676;BME280;39539;52.202;9.876;2023-03-22T00:51:59;100294.56;;;7.51;100.00
19676;BME280;39539;52.202;9.876;2023-03-22T00:54:24;100281.13;;;7.46;100.00
19676;BME280;39539;52.202;9.876;2023-03-22T00:56:50;100289.25;;;7.45;100.00
19676;BME280;39539;52.202;9.876;2023-03-22T00:59:15;100281.91;;;7.40;100.00
19676;BME280;39539;52.202;9.876;2023-03-22T01:01:41;100291.22;;;7.36;100.00
19676;BME280;39539;52.202;9.876;2023-03-22T01:04:07;100283.47;;;7.28;100.00
19676;BME280;39539;52.202;9.876;2023-03-22T01:06:32;100277.94;;;7.23;100.00
19676;BME280;39539;52.202;9.876;2023-03-22T01:08:58;100267.94;;;7.18;100.00
19676;BME280;39539;52.202;9.876;2023-03-22T01:11:24;100263.47;;;7.18;100.00
19676;BME280;39539;52.202;9.876;2023-03-22T01:13:49;100269.38;;;7.20;100.00
19676;BME280;39539;52.202;9.876;2023-03-22T01:16:15;100268.00;;;7.25;100.00
19676;BME280;39539;52.202;9.876;2023-03-22T01:18:41;100256.84;;;7.36;100.00
19676;BME280;39539;52.202;9.876;2023-03-22T01:21:07;100256.91;;;7.42;100.00
19676;BME280;39539;52.202;9.876;2023-03-22T01:23:33;100255.53;;;7.60;100.00
19676;BME280;39539;52.202;9.876;2023-03-22T01:25:59;100260.25;;;7.64;100.00
19676;BME280;39539;52.202;9.876;2023-03-22T01:28:26;100260.91;;;7.73;100.00
19676;BME280;39539;52.202;9.876;2023-03-22T01:30:53;100269.03;;;7.78;100.00
19676;BME280;39539;52.202;9.876;2023-03-22T01:33:18;100255.44;;;7.81;100.00
19676;BME280;39539;52.202;9.876;2023-03-22T01:35:43;100254.81;;;7.86;100.00
19676;BME280;39539;52.202;9.876;2023-03-22T01:38:09;100267.06;;;7.94;100.00
19676;BME280;39539;52.202;9.876;2023-03-22T01:40:34;100257.09;;;7.96;100.00
19676;BME280;39539;52.202;9.876;2023-03-22T01:43:00;100232.44;;;7.88;100.00
19676;BME280;39539;52.202;9.876;2023-03-22T01:45:37;100252.44;;;8.04;100.00
19676;BME280;39539;52.202;9.876;2023-03-22T01:48:09;100246.53;;;8.02;100.00
19676;BME280;39539;52.202;9.876;2023-03-22T01:50:37;100247.53;;;8.08;100.00
19676;BME280;39539;52.202;9.876;2023-03-22T01:53:04;100244.72;;;8.16;100.00
19676;BME280;39539;52.202;9.876;2023-03-22T01:55:33;100232.28;;;8.17;100.00
19676;BME280;39539;52.202;9.876;2023-03-22T01:58:00;100247.16;;;8.24;100.00
19676;BME280;39539;52.202;9.876;2023-03-22T02:00:26;100219.06;;;8.17;100.00
19676;BME280;39539;52.202;9.876;2023-03-22T02:02:52;100226.22;;;8.29;100.00
19676;BME280;39539;52.202;9.876;2023-03-22T02:05:18;100199.50;;;8.18;100.00
19676;BME280;39539;52.202;9.876;2023-03-22T02:07:44;100238.03;;;8.40;100.00
19676;BME280;39539;52.202;9.876;2023-03-22T02:10:17;100239.28;;;8.44;100.00
19676;BME280;39539;52.202;9.876;2023-03-22T02:15:40;100222.78;;;8.56;100.00
19676;BME280;39539;52.202;9.876;2023-03-22T02:18:20;100211.97;;;8.50;100.00
19676;BME280;39539;52.202;9.876;2023-03-22T02:21:07;100220.94;;;8.56;100.00
19676;BME280;39539;52.202;9.876;2023-03-22T02:35:20;100213.19;;;8.54;100.00
19676;BME280;39539;52.202;9.876;2023-03-22T02:38:10;100212.38;;;8.54;100.00
19676;BME280;39539;52.202;9.876;2023-03-22T02:46:07;100204.22;;;8.49;100.00
19676;BME280;39539;52.202;9.876;2023-03-22T02:49:01;100202.00;;;8.52;100.00
19676;BME280;39539;52.202;9.876;2023-03-22T02:51:35;100202.41;;;8.49;100.00
19676;BME280;39539;52.202;9.876;2023-03-22T02:54:21;100205.25;;;8.48;100.00
19676;BME280;39539;52.202;9.876;2023-03-22T02:56:56;100199.94;;;8.54;100.00
19676;BME280;39539;52.202;9.876;2023-03-22T02:59:24;100198.72;;;8.50;100.00
19676;BME280;39539;52.202;9.876;2023-03-22T03:01:56;100206.66;;;8.50;100.00
19676;BME280;39539;52.202;9.876;2023-03-22T03:04:29;100196.50;;;8.47;100.00
19676;BME280;39539;52.202;9.876;2023-03-22T03:07:01;100196.50;;;8.47;100.00
19676;BME280;39539;52.202;9.876;2023-03-22T03:09:28;100200.75;;;8.48;100.00
19676;BME280;39539;52.202;9.876;2023-03-22T03:11:54;100193.03;;;8.47;100.00
19676;BME280;39539;52.202;9.876;2023-03-22T03:14:31;100208.31;;;8.58;100.00
19676;BME280;39539;52.202;9.876;2023-03-22T03:20:00;100196.69;;;8.59;100.00
19676;BME280;39539;52.202;9.876;2023-03-22T03:25:23;100194.22;;;8.58;100.00
19676;BME280;39539;52.202;9.876;2023-03-22T03:28:02;100189.56;;;8.53;100.00
19676;BME280;39539;52.202;9.876;2023-03-22T03:30:38;100200.34;;;8.51;100.00
19676;BME280;39539;52.202;9.876;2023-03-22T03:33:12;100184.06;;;8.41;100.00
19676;BME280;39539;52.202;9.876;2023-03-22T03:35:46;100180.81;;;8.39;100.00
19676;BME280;39539;52.202;9.876;2023-03-22T03:38:17;100184.66;;;8.43;100.00
19676;BME280;39539;52.202;9.876;2023-03-22T03:40:46;100179.16;;;8.45;100.00
19676;BME280;39539;52.202;9.876;2023-03-22T03:43:14;100164.69;;;8.34;100.00
19676;BME280;39539;52.202;9.876;2023-03-22T03:45:40;100160.41;;;8.33;100.00
19676;BME280;39539;52.202;9.876;2023-03-22T03:48:14;100182.84;;;8.44;100.00
19676;BME280;39539;52.202;9.876;2023-03-22T03:50:42;100178.38;;;8.44;100.00
19676;BME280;39539;52.202;9.876;2023-03-22T03:53:08;100168.53;;;8.31;100.00
19676;BME280;39539;52.202;9.876;2023-03-22T03:55:33;100176.31;;;8.33;100.00
19676;BME280;39539;52.202;9.876;2023-03-22T03:57:58;100168.13;;;8.35;100.00
19676;BME280;39539;52.202;9.876;2023-03-22T04:00:24;100173.25;;;8.36;100.00
19676;BME280;39539;52.202;9.876;2023-03-22T04:02:49;100160.00;;;8.36;100.00
19676;BME280;39539;52.202;9.876;2023-03-22T04:05:15;100167.72;;;8.38;100.00
19676;BME280;39539;52.202;9.876;2023-03-22T04:07:40;100166.31;;;8.35;100.00
19676;BME280;39539;52.202;9.876;2023-03-22T04:10:06;100163.25;;;8.38;100.00
19676;BME280;39539;52.202;9.876;2023-03-22T04:12:32;100156.38;;;8.44;100.00
19676;BME280;39539;52.202;9.876;2023-03-22T04:14:57;100152.66;;;8.51;100.00
19676;BME280;39539;52.202;9.876;2023-03-22T04:17:23;100161.41;;;8.65;100.00
19676;BME280;39539;52.202;9.876;2023-03-22T04:19:48;100149.59;;;8.68;100.00
19676;BME280;39539;52.202;9.876;2023-03-22T04:22:14;100157.13;;;8.77;100.00
19676;BME280;39539;52.202;9.876;2023-03-22T04:24:42;100152.22;;;8.81;100.00
19676;BME280;39539;52.202;9.876;2023-03-22T04:27:18;100147.91;;;8.87;100.00
19676;BME280;39539;52.202;9.876;2023-03-22T04:29:43;100143.66;;;8.79;100.00
19676;BME280;39539;52.202;9.876;2023-03-22T04:32:16;100151.81;;;8.77;100.00
19676;BME280;39539;52.202;9.876;2023-03-22T04:34:43;100146.50;;;8.84;100.00
19676;BME280;39539;52.202;9.876;2023-03-22T04:37:09;100149.53;;;8.88;100.00
19676;BME280;39539;52.202;9.876;2023-03-22T04:39:34;100131.63;;;8.83;100.00
19676;BME280;39539;52.202;9.876;2023-03-22T04:42:00;100129.38;;;8.87;100.00
19676;BME280;39539;52.202;9.876;2023-03-22T04:44:26;100140.97;;;8.92;100.00
19676;BME280;39539;52.202;9.876;2023-03-22T04:46:51;100145.28;;;8.87;100.00
19676;BME280;39539;52.202;9.876;2023-03-22T04:49:16;100138.75;;;8.89;100.00
19676;BME280;39539;52.202;9.876;2023-03-22T04:51:42;100144.25;;;8.88;100.00
19676;BME280;39539;52.202;9.876;2023-03-22T04:54:07;100130.19;;;8.87;100.00
19676;BME280;39539;52.202;9.876;2023-03-22T04:56:33;100121.25;;;8.75;100.00
19676;BME280;39539;52.202;9.876;2023-03-22T04:58:58;100147.69;;;8.88;100.00
19676;BME280;39539;52.202;9.876;2023-03-22T05:01:24;100142.00;;;8.85;100.00
19676;BME280;39539;52.202;9.876;2023-03-22T05:03:49;100145.28;;;8.87;100.00
19676;BME280;39539;52.202;9.876;2023-03-22T05:06:14;100140.97;;;8.86;100.00
19676;BME280;39539;52.202;9.876;2023-03-22T05:08:40;100150.56;;;8.80;100.00
19676;BME280;39539;52.202;9.876;2023-03-22T05:11:08;100133.47;;;8.76;100.00
19676;BME280;39539;52.202;9.876;2023-03-22T05:13:36;100126.53;;;8.82;100.00
19676;BME280;39539;52.202;9.876;2023-03-22T05:16:02;100122.69;;;8.77;100.00
19676;BME280;39539;52.202;9.876;2023-03-22T05:18:28;100119.81;;;8.79;100.00
19676;BME280;39539;52.202;9.876;2023-03-22T05:20:55;100136.50;;;8.86;100.00
19676;BME280;39539;52.202;9.876;2023-03-22T05:23:22;100125.72;;;8.81;100.00
19676;BME280;39539;52.202;9.876;2023-03-22T05:25:49;100133.66;;;8.81;100.00
19676;BME280;39539;52.202;9.876;2023-03-22T05:28:16;100133.88;;;8.80;100.00
19676;BME280;39539;52.202;9.876;2023-03-22T05:30:44;100127.59;;;8.67;100.00
19676;BME280;39539;52.202;9.876;2023-03-22T05:33:10;100139.41;;;8.65;100.00
19676;BME280;39539;52.202;9.876;2023-03-22T05:35:37;100142.47;;;8.62;100.00
19676;BME280;39539;52.202;9.876;2023-03-22T05:38:04;100146.13;;;8.67;100.00
19676;BME280;39539;52.202;9.876;2023-03-22T05:40:29;100136.13;;;8.76;100.00
19676;BME280;39539;52.202;9.876;2023-03-22T05:42:55;100134.28;;;8.76;100.00
19676;BME280;39539;52.202;9.876;2023-03-22T05:45:20;100107.41;;;8.73;100.00
19676;BME280;39539;52.202;9.876;2023-03-22T05:47:46;100120.38;;;8.88;100.00
19676;BME280;39539;52.202;9.876;2023-03-22T05:50:14;100126.84;;;9.05;100.00
19676;BME280;39539;52.202;9.876;2023-03-22T05:52:40;100122.53;;;9.17;100.00
19676;BME280;39539;52.202;9.876;2023-03-22T05:55:10;100116.31;;;9.30;100.00
19676;BME280;39539;52.202;9.876;2023-03-22T05:57:37;100118.75;;;9.38;100.00
19676;BME280;39539;52.202;9.876;2023-03-22T06:00:04;100121.16;;;9.47;100.00
19676;BME280;39539;52.202;9.876;2023-03-22T06:02:30;100122.75;;;9.54;100.00
19676;BME280;39539;52.202;9.876;2023-03-22T06:04:56;100113.53;;;9.57;100.00
19676;BME280;39539;52.202;9.876;2023-03-22T06:07:21;100110.84;;;9.63;100.00
19676;BME280;39539;52.202;9.876;2023-03-22T06:09:46;100112.69;;;9.63;100.00
19676;BME280;39539;52.202;9.876;2023-03-22T06:12:14;100103.31;;;9.60;100.00
19676;BME280;39539;52.202;9.876;2023-03-22T06:14:40;100088.03;;;9.56;100.00
19676;BME280;39539;52.202;9.876;2023-03-22T06:17:05;100082.88;;;9.61;100.00
19676;BME280;39539;52.202;9.876;2023-03-22T06:19:31;100100.69;;;9.85;100.00
19676;BME280;39539;52.202;9.876;2023-03-22T06:21:56;100105.31;;;9.90;100.00
19676;BME280;39539;52.202;9.876;2023-03-22T06:24:21;100085.50;;;9.93;100.00
19676;BME280;39539;52.202;9.876;2023-03-22T06:26:47;100095.22;;;10.05;100.00
19676;BME280;39539;52.202;9.876;2023-03-22T06:29:12;100086.72;;;9.97;100.00
19676;BME280;39539;52.202;9.876;2023-03-22T06:31:37;100080.97;;;10.00;100.00
19676;BME280;39539;52.202;9.876;2023-03-22T06:34:04;100095.50;;;10.16;100.00
19676;BME280;39539;52.202;9.876;2023-03-22T06:36:29;100100.53;;;10.05;100.00
19676;BME280;39539;52.202;9.876;2023-03-22T06:38:56;100101.16;;;10.01;100.00
19676;BME280;39539;52.202;9.876;2023-03-22T06:41:21;100095.16;;;10.12;100.00
19676;BME280;39539;52.202;9.876;2023-03-22T06:43:47;100091.19;;;10.21;100.00
19676;BME280;39539;52.202;9.876;2023-03-22T06:46:12;100075.31;;;10.40;100.00
19676;BME280;39539;52.202;9.876;2023-03-22T06:48:38;100097.84;;;10.74;100.00
19676;BME280;39539;52.202;9.876;2023-03-22T06:51:03;100095.53;;;10.96;100.00
19676;BME280;39539;52.202;9.876;2023-03-22T06:53:29;100075.56;;;11.05;100.00
19676;BME280;39539;52.202;9.876;2023-03-22T06:55:55;100071.09;;;11.17;100.00
19676;BME280;39539;52.202;9.876;2023-03-22T06:58:20;100079.69;;;11.50;100.00
19676;BME280;39539;52.202;9.876;2023-03-22T07:00:45;100082.50;;;11.66;100.00
19676;BME280;39539;52.202;9.876;2023-03-22T07:03:11;100073.81;;;11.83;99.68
19676;BME280;39539;52.202;9.876;2023-03-22T07:05:36;100074.09;;;12.17;98.15
19676;BME280;39539;52.202;9.876;2023-03-22T07:08:02;100062.88;;;12.38;95.83
19676;BME280;39539;52.202;9.876;2023-03-22T07:10:28;100049.16;;;12.58;94.62
19676;BME280;39539;52.202;9.876;2023-03-22T07:12:53;100053.63;;;12.81;92.44
19676;BME280;39539;52.202;9.876;2023-03-22T07:15:19;100047.59;;;13.43;89.48
19676;BME280;39539;52.202;9.876;2023-03-22T07:17:49;100038.63;;;14.60;85.28
19676;BME280;39539;52.202;9.876;2023-03-22T07:20:15;100053.84;;;15.58;77.77
19676;BME280;39539;52.202;9.876;2023-03-22T07:22:40;100048.97;;;16.25;73.04
19676;BME280;39539;52.202;9.876;2023-03-22T07:25:06;100034.38;;;15.36;76.17
19676;BME280;39539;52.202;9.876;2023-03-22T07:27:32;100032.19;;;14.56;79.83
19676;BME280;39539;52.202;9.876;2023-03-22T07:29:57;100019.19;;;13.37;85.00
19676;BME280;39539;52.202;9.876;2023-03-22T07:32:22;100009.03;;;12.93;89.91
19676;BME280;39539;52.202;9.876;2023-03-22T07:34:48;100013.50;;;13.04;90.83
19676;BME280;39539;52.202;9.876;2023-03-22T07:37:13;100031.50;;;13.88;89.00
19676;BME280;39539;52.202;9.876;2023-03-22T07:39:39;100020.41;;;16.56;76.28
19676;BME280;39539;52.202;9.876;2023-03-22T07:42:04;100020.72;;;19.53;64.12
19676;BME280;39539;52.202;9.876;2023-03-22T07:44:30;100017.53;;;20.57;59.06
19676;BME280;39539;52.202;9.876;2023-03-22T07:46:56;100007.72;;;19.65;59.53
19676;BME280;39539;52.202;9.876;2023-03-22T07:49:21;99994.06;;;17.62;66.88
19676;BME280;39539;52.202;9.876;2023-03-22T07:51:46;99994.44;;;16.56;71.24
19676;BME280;39539;52.202;9.876;2023-03-22T07:54:12;99983.81;;;16.24;75.64
19676;BME280;39539;52.202;9.876;2023-03-22T07:56:37;99985.13;;;16.16;74.33
19676;BME280;39539;52.202;9.876;2023-03-22T07:59:03;99976.44;;;15.99;74.39
19676;BME280;39539;52.202;9.876;2023-03-22T08:01:28;99979.41;;;15.60;77.17
19676;BME280;39539;52.202;9.876;2023-03-22T08:03:54;99968.50;;;15.40;78.03
19676;BME280;39539;52.202;9.876;2023-03-22T08:06:19;99971.00;;;15.84;77.67
19676;BME280;39539;52.202;9.876;2023-03-22T08:08:46;99978.69;;;16.17;75.07
19676;BME280;39539;52.202;9.876;2023-03-22T08:11:12;99974.16;;;16.23;73.91
19676;BME280;39539;52.202;9.876;2023-03-22T08:13:38;99974.03;;;16.50;72.52
19676;BME280;39539;52.202;9.876;2023-03-22T08:16:04;99973.06;;;16.14;75.36
19676;BME280;39539;52.202;9.876;2023-03-22T08:18:31;99965.03;;;15.71;75.58
19676;BME280;39539;52.202;9.876;2023-03-22T08:20:57;99964.22;;;15.39;77.69
19676;BME280;39539;52.202;9.876;2023-03-22T08:23:25;99967.72;;;15.07;81.09
19676;BME280;39539;52.202;9.876;2023-03-22T08:25:51;99956.84;;;14.43;82.88
19676;BME280;39539;52.202;9.876;2023-03-22T08:28:17;99958.91;;;14.13;85.57
19676;BME280;39539;52.202;9.876;2023-03-22T08:30:45;99962.81;;;13.89;87.27
19676;BME280;39539;52.202;9.876;2023-03-22T08:33:11;99965.13;;;13.80;88.62
19676;BME280;39539;52.202;9.876;2023-03-22T08:35:37;99964.13;;;13.86;88.59
19676;BME280;39539;52.202;9.876;2023-03-22T08:38:03;99949.50;;;13.72;87.16
19676;BME280;39539;52.202;9.876;2023-03-22T08:40:29;99954.44;;;13.80;87.32
19676;BME280;39539;52.202;9.876;2023-03-22T08:42:55;99940.47;;;13.56;88.91
19676;BME280;39539;52.202;9.876;2023-03-22T08:45:20;99947.66;;;13.39;90.72
19676;BME280;39539;52.202;9.876;2023-03-22T08:47:46;99948.09;;;13.19;91.48
19676;BME280;39539;52.202;9.876;2023-03-22T08:50:12;99943.75;;;13.13;91.77
19676;BME280;39539;52.202;9.876;2023-03-22T08:52:38;99953.53;;;13.24;94.06
19676;BME280;39539;52.202;9.876;2023-03-22T08:55:04;99955.94;;;13.37;93.73
19676;BME280;39539;52.202;9.876;2023-03-22T08:57:31;99944.44;;;13.54;91.99
19676;BME280;39539;52.202;9.876;2023-03-22T08:59:57;99936.19;;;13.38;92.67
19676;BME280;39539;52.202;9.876;2023-03-22T09:02:25;99928.09;;;13.33;92.71
19676;BME280;39539;52.202;9.876;2023-03-22T09:04:51;99911.44;;;13.26;89.92
19676;BME280;39539;52.202;9.876;2023-03-22T09:07:17;99904.28;;;13.15;89.51
19676;BME280;39539;52.202;9.876;2023-03-22T09:09:45;99928.66;;;13.35;91.48
19676;BME280;39539;52.202;9.876;2023-03-22T09:12:10;99931.63;;;13.39;92.22
19676;BME280;39539;52.202;9.876;2023-03-22T09:14:36;99926.25;;;13.51;92.59
19676;BME280;39539;52.202;9.876;2023-03-22T09:17:02;99934.53;;;13.71;90.22
19676;BME280;39539;52.202;9.876;2023-03-22T09:19:28;99923.97;;;13.81;88.47
19676;BME280;39539;52.202;9.876;2023-03-22T09:21:53;99919.13;;;13.78;89.03
19676;BME280;39539;52.202;9.876;2023-03-22T09:24:19;99907.09;;;13.98;88.15
19676;BME280;39539;52.202;9.876;2023-03-22T09:26:45;99904.94;;;14.17;83.58
19676;BME280;39539;52.202;9.876;2023-03-22T09:29:12;99912.38;;;14.58;85.69
19676;BME280;39539;52.202;9.876;2023-03-22T09:31:37;99907.41;;;14.45;82.69
19676;BME280;39539;52.202;9.876;2023-03-22T09:34:03;99906.19;;;14.53;83.87
19676;BME280;39539;52.202;9.876;2023-03-22T09:36:29;99903.94;;;14.99;80.34
19676;BME280;39539;52.202;9.876;2023-03-22T09:38:57;99895.69;;;15.80;76.66
19676;BME280;39539;52.202;9.876;2023-03-22T09:41:35;99885.94;;;15.26;78.64
19676;BME280;39539;52.202;9.876;2023-03-22T09:44:07;99880.03;;;15.24;78.52
19676;BME280;39539;52.202;9.876;2023-03-22T09:46:40;99883.97;;;15.49;80.65
19676;BME280;39539;52.202;9.876;2023-03-22T09:49:17;99882.50;;;15.74;78.86
19676;BME280;39539;52.202;9.876;2023-03-22T09:51:46;99874.41;;;15.21;77.23
19676;BME280;39539;52.202;9.876;2023-03-22T09:54:15;99865.16;;;14.69;80.94
19676;BME280;39539;52.202;9.876;2023-03-22T09:56:48;99860.06;;;14.46;83.03
19676;BME280;39539;52.202;9.876;2023-03-22T09:59:24;99874.28;;;14.51;81.42
19676;BME280;39539;52.202;9.876;2023-03-22T10:01:59;99858.66;;;14.92;81.09
19676;BME280;39539;52.202;9.876;2023-03-22T10:10:13;99851.47;;;14.98;78.20
19676;BME280;39539;52.202;9.876;2023-03-22T10:15:23;99864.06;;;15.40;77.26
19676;BME280;39539;52.202;9.876;2023-03-22T10:17:52;99861.09;;;15.79;74.62
19676;BME280;39539;52.202;9.876;2023-03-22T10:22:48;99846.31;;;15.23;77.94
19676;BME280;39539;52.202;9.876;2023-03-22T10:25:18;99848.59;;;16.05;81.10
19676;BME280;39539;52.202;9.876;2023-03-22T10:27:48;99847.63;;;16.36;75.03
19676;BME280;39539;52.202;9.876;2023-03-22T10:30:23;99829.88;;;15.52;76.86
19676;BME280;39539;52.202;9.876;2023-03-22T10:33:01;99856.53;;;15.74;76.13
19676;BME280;39539;52.202;9.876;2023-03-22T10:35:28;99844.78;;;15.85;73.91
19676;BME280;39539;52.202;9.876;2023-03-22T10:37:57;99840.63;;;15.62;75.33
19676;BME280;39539;52.202;9.876;2023-03-22T10:40:27;99844.19;;;15.31;78.39
19676;BME280;39539;52.202;9.876;2023-03-22T10:43:02;99844.66;;;15.65;79.78
19676;BME280;39539;52.202;9.876;2023-03-22T10:45:30;99846.94;;;15.41;77.41
19676;BME280;39539;52.202;9.876;2023-03-22T10:50:45;99849.72;;;15.61;77.90
19676;BME280;39539;52.202;9.876;2023-03-22T10:53:22;99845.50;;;15.28;75.72
19676;BME280;39539;52.202;9.876;2023-03-22T10:55:49;99849.44;;;15.58;75.28
19676;BME280;39539;52.202;9.876;2023-03-22T10:58:17;99837.81;;;15.37;74.24
19676;BME280;39539;52.202;9.876;2023-03-22T11:00:51;99843.44;;;15.35;75.67
19676;BME280;39539;52.202;9.876;2023-03-22T11:03:28;99857.34;;;14.95;76.53
19676;BME280;39539;52.202;9.876;2023-03-22T11:08:26;99838.56;;;15.75;76.60
19676;BME280;39539;52.202;9.876;2023-03-22T11:10:52;99838.63;;;15.90;75.57
19676;BME280;39539;52.202;9.876;2023-03-22T11:13:19;99839.09;;;15.77;74.79
19676;BME280;39539;52.202;9.876;2023-03-22T11:15:54;99815.00;;;15.29;74.86
19676;BME280;39539;52.202;9.876;2023-03-22T11:18:24;99819.50;;;15.18;76.15
19676;BME280;39539;52.202;9.876;2023-03-22T11:20:56;99825.41;;;15.20;78.34
19676;BME280;39539;52.202;9.876;2023-03-22T11:23:24;99831.44;;;15.48;78.46
19676;BME280;39539;52.202;9.876;2023-03-22T11:25:55;99831.31;;;15.70;77.42
19676;BME280;39539;52.202;9.876;2023-03-22T11:31:13;99832.09;;;15.65;77.04
19676;BME280;39539;52.202;9.876;2023-03-22T11:33:58;99822.06;;;15.50;74.16
19676;BME280;39539;52.202;9.876;2023-03-22T11:36:24;99824.91;;;15.76;75.39
19676;BME280;39539;52.202;9.876;2023-03-22T11:38:59;99818.09;;;15.58;77.33
19676;BME280;39539;52.202;9.876;2023-03-22T11:41:27;99818.22;;;15.79;73.06
19676;BME280;39539;52.202;9.876;2023-03-22T11:43:56;99802.66;;;15.76;nan
19676;BME280;39539;52.202;9.876;2023-03-22T11:46:22;99820.25;;;15.61;73.94
19676;BME280;39539;52.202;9.876;2023-03-22T11:48:50;99817.28;;;15.53;76.04
19676;BME280;39539;52.202;9.876;2023-03-22T11:51:26;99816.13;;;15.96;75.97
19676;BME280;39539;52.202;9.876;2023-03-22T11:53:56;99812.97;;;16.25;76.14
19676;BME280;39539;52.202;9.876;2023-03-22T11:56:28;99824.25;;;16.27;73.16
19676;BME280;39539;52.202;9.876;2023-03-22T11:59:29;99813.47;;;15.91;74.60
19676;BME280;39539;52.202;9.876;2023-03-22T12:04:42;99816.69;;;15.98;74.41
19676;BME280;39539;52.202;9.876;2023-03-22T12:07:15;99815.34;;;15.96;73.65
19676;BME280;39539;52.202;9.876;2023-03-22T12:09:59;99822.81;;;15.88;73.61
19676;BME280;39539;52.202;9.876;2023-03-22T12:12:34;99823.56;;;15.79;74.80
19676;BME280;39539;52.202;9.876;2023-03-22T12:15:09;99824.47;;;15.47;77.35
19676;BME280;39539;52.202;9.876;2023-03-22T12:17:42;99810.88;;;15.59;75.97
19676;BME280;39539;52.202;9.876;2023-03-22T12:22:53;99824.25;;;16.22;77.21
19676;BME280;39539;52.202;9.876;2023-03-22T12:25:42;99818.91;;;16.32;75.85
19676;BME280;39539;52.202;9.876;2023-03-22T12:28:08;99817.25;;;16.10;74.62
19676;BME280;39539;52.202;9.876;2023-03-22T12:30:44;99819.66;;;15.97;76.10
19676;BME280;39539;52.202;9.876;2023-03-22T12:33:19;99820.94;;;15.84;76.60
19676;BME280;39539;52.202;9.876;2023-03-22T12:35:49;99817.53;;;15.51;76.89
19676;BME280;39539;52.202;9.876;2023-03-22T12:41:16;99813.97;;;15.35;76.75
19676;BME280;39539;52.202;9.876;2023-03-22T12:43:58;99813.63;;;15.21;79.95
19676;BME280;39539;52.202;9.876;2023-03-22T12:46:29;99815.75;;;15.19;77.04
19676;BME280;39539;52.202;9.876;2023-03-22T12:51:36;99815.56;;;14.94;77.82
19676;BME280;39539;52.202;9.876;2023-03-22T12:54:02;99814.53;;;14.95;77.86
19676;BME280;39539;52.202;9.876;2023-03-22T12:56:36;99818.38;;;15.14;78.50
19676;BME280;39539;52.202;9.876;2023-03-22T12:59:04;99817.38;;;15.20;77.35
19676;BME280;39539;52.202;9.876;2023-03-22T13:01:36;99820.94;;;15.36;79.11
19676;BME280;39539;52.202;9.876;2023-03-22T13:04:45;99807.78;;;15.30;78.03
19676;BME280;39539;52.202;9.876;2023-03-22T13:09:48;99803.13;;;14.77;77.26
19676;BME280;39539;52.202;9.876;2023-03-22T13:15:00;99800.31;;;14.94;79.23
19676;BME280;39539;52.202;9.876;2023-03-22T13:17:36;99805.91;;;14.88;77.90
19676;BME280;39539;52.202;9.876;2023-03-22T13:25:17;99782.19;;;14.64;76.78
19676;BME280;39539;52.202;9.876;2023-03-22T13:27:54;99784.97;;;14.79;79.72
19676;BME280;39539;52.202;9.876;2023-03-22T13:30:26;99789.50;;;14.79;78.45
19676;BME280;39539;52.202;9.876;2023-03-22T13:35:44;99779.09;;;14.82;78.19
19676;BME280;39539;52.202;9.876;2023-03-22T13:40:54;99784.53;;;14.93;76.03
19676;BME280;39539;52.202;9.876;2023-03-22T13:43:50;99785.84;;;14.90;75.71
19676;BME280;39539;52.202;9.876;2023-03-22T13:54:06;99769.19;;;14.83;78.56
19676;BME280;39539;52.202;9.876;2023-03-22T13:56:54;99773.09;;;14.65;78.78
19676;BME280;39539;52.202;9.876;2023-03-22T14:01:55;99761.06;;;14.68;76.52
19676;BME280;39539;52.202;9.876;2023-03-22T14:04:28;99768.00;;;14.64;79.61
19676;BME280;39539;52.202;9.876;2023-03-22T14:06:57;99761.81;;;14.58;79.23
19676;BME280;39539;52.202;9.876;2023-03-22T14:09:59;99772.19;;;14.54;79.41
19676;BME280;39539;52.202;9.876;2023-03-22T14:15:14;99784.41;;;14.45;79.84
19676;BME280;39539;52.202;9.876;2023-03-22T14:17:44;99778.34;;;14.28;81.31
19676;BME280;39539;52.202;9.876;2023-03-22T14:20:22;99791.84;;;14.38;79.91
19676;BME280;39539;52.202;9.876;2023-03-22T14:23:01;99788.88;;;14.40;84.93
19676;BME280;39539;52.202;9.876;2023-03-22T14:25:31;99787.13;;;14.23;84.41
19676;BME280;39539;52.202;9.876;2023-03-22T14:27:58;99797.97;;;14.38;83.82